Time,TemperatureF,DewpointF,PressureIn,WindDirection,WindDirectionDegrees,WindSpeedMPH,WindSpeedGustMPH,Humidity,HourlyPrecipIn,Conditions,Clouds,dailyrainin,SoftwareType,DateUTC
2013-05-15 00:00:00,46.5,41.9,30.13,West,274,0.0,0.0,84,0.00,,,0.00,Wunderground v.1.15,2013-05-15 07:00:00,
2013-05-15 00:05:00,46.2,41.6,30.13,West,274,0.0,0.0,84,0.00,,,0.00,Wunderground v.1.15,2013-05-15 07:05:00,
2013-05-15 00:10:00,46.0,41.7,30.13,West,274,0.0,0.0,85,0.00,,,0.00,Wunderground v.1.15,2013-05-15 07:10:00,
2013-05-15 00:15:00,45.9,41.6,30.13,West,274,0.0,0.0,85,0.00,,,0.00,Wunderground v.1.15,2013-05-15 07:15:00,
2013-05-15 00:20:00,45.7,41.4,30.13,West,273,0.0,0.0,85,0.00,,,0.00,Wunderground v.1.15,2013-05-15 07:20:00,
2013-05-15 00:25:00,45.4,41.2,30.13,West,274,0.0,0.0,85,0.00,,,0.00,Wunderground v.1.15,2013-05-15 07:25:00,
2013-05-15 00:30:00,45.4,41.2,30.13,West,273,0.0,0.0,85,0.00,,,0.00,Wunderground v.1.15,2013-05-15 07:30:00,
2013-05-15 00:40:00,45.0,41.1,30.13,West,274,0.0,0.0,86,0.00,,,0.00,Wunderground v.1.15,2013-05-15 07:40:00,
2013-05-15 00:45:00,44.8,40.9,30.13,West,274,0.0,0.0,86,0.00,,,0.00,Wunderground v.1.15,2013-05-15 07:45:00,
2013-05-15 00:50:00,44.7,41.1,30.13,West,274,0.0,0.0,87,0.00,,,0.00,Wunderground v.1.15,2013-05-15 07:50:00,
2013-05-15 01:00:00,44.6,41.0,30.13,West,274,0.0,0.0,87,0.00,,,0.00,Wunderground v.1.15,2013-05-15 08:00:00,
2013-05-15 01:05:00,44.4,40.8,30.13,West,274,0.0,0.0,87,0.00,,,0.00,Wunderground v.1.15,2013-05-15 08:05:00,
2013-05-15 01:10:00,44.4,40.8,30.13,West,274,0.0,0.0,87,0.00,,,0.00,Wunderground v.1.15,2013-05-15 08:10:00,
2013-05-15 01:15:00,44.4,41.1,30.13,West,274,0.0,0.0,88,0.00,,,0.00,Wunderground v.1.15,2013-05-15 08:15:00,
2013-05-15 01:20:00,44.3,41.0,30.13,West,274,0.0,0.0,88,0.00,,,0.00,Wunderground v.1.15,2013-05-15 08:20:00,
2013-05-15 01:25:00,44.1,40.8,30.13,West,274,0.0,0.0,88,0.00,,,0.00,Wunderground v.1.15,2013-05-15 08:25:00,
2013-05-15 01:30:00,44.1,40.8,30.12,West,274,0.0,0.0,88,0.00,,,0.00,Wunderground v.1.15,2013-05-15 08:30:00,
2013-05-15 01:35:00,44.1,40.8,30.12,West,274,0.0,0.0,88,0.00,,,0.00,Wunderground v.1.15,2013-05-15 08:35:00,
2013-05-15 01:40:00,44.1,41.1,30.12,West,274,0.0,0.0,89,0.00,,,0.00,Wunderground v.1.15,2013-05-15 08:40:00,
2013-05-15 01:45:00,44.3,41.3,30.11,West,274,0.0,0.0,89,0.00,,,0.00,Wunderground v.1.15,2013-05-15 08:45:00,
2013-05-15 01:50:00,44.3,41.3,30.11,West,274,0.0,0.0,89,0.00,,,0.00,Wunderground v.1.15,2013-05-15 08:50:00,
2013-05-15 01:55:00,44.3,41.3,30.11,West,274,0.0,0.0,89,0.00,,,0.00,Wunderground v.1.15,2013-05-15 08:55:00,
2013-05-15 02:00:00,44.4,41.4,30.11,West,273,0.0,0.0,89,0.00,,,0.00,Wunderground v.1.15,2013-05-15 09:00:00,
2013-05-15 02:05:00,44.4,41.4,30.11,West,274,0.0,0.0,89,0.00,,,0.00,Wunderground v.1.15,2013-05-15 09:05:00,
2013-05-15 02:10:00,44.4,41.4,30.11,West,274,0.0,0.0,89,0.00,,,0.00,Wunderground v.1.15,2013-05-15 09:10:00,
2013-05-15 02:15:00,44.4,41.4,30.11,West,274,0.0,0.0,89,0.00,,,0.00,Wunderground v.1.15,2013-05-15 09:15:00,
2013-05-15 02:20:00,44.4,41.1,30.11,West,274,0.0,0.0,88,0.00,,,0.00,Wunderground v.1.15,2013-05-15 09:20:00,
2013-05-15 02:25:00,44.4,41.1,30.11,West,274,0.0,0.0,88,0.00,,,0.00,Wunderground v.1.15,2013-05-15 09:25:00,
2013-05-15 02:30:00,44.4,41.1,30.11,West,274,0.0,0.0,88,0.00,,,0.00,Wunderground v.1.15,2013-05-15 09:30:00,
2013-05-15 02:35:00,44.3,41.0,30.11,West,274,0.0,0.0,88,0.00,,,0.00,Wunderground v.1.15,2013-05-15 09:35:00,
2013-05-15 02:40:00,44.3,41.0,30.11,West,274,0.0,0.0,88,0.00,,,0.00,Wunderground v.1.15,2013-05-15 09:40:00,
2013-05-15 02:45:00,44.1,40.8,30.11,West,273,0.0,0.0,88,0.00,,,0.00,Wunderground v.1.15,2013-05-15 09:45:00,
2013-05-15 02:50:00,44.1,40.8,30.11,West,274,0.0,0.0,88,0.00,,,0.00,Wunderground v.1.15,2013-05-15 09:50:00,
2013-05-15 02:55:00,44.1,40.8,30.11,West,273,0.0,0.0,88,0.00,,,0.00,Wunderground v.1.15,2013-05-15 09:55:00,
2013-05-15 03:00:00,44.0,40.7,30.11,West,274,0.0,0.0,88,0.00,,,0.00,Wunderground v.1.15,2013-05-15 10:00:00,
2013-05-15 03:05:00,44.0,40.7,30.11,West,273,0.0,0.0,88,0.00,,,0.00,Wunderground v.1.15,2013-05-15 10:05:00,
2013-05-15 03:10:00,44.0,40.7,30.11,West,274,0.0,0.0,88,0.00,,,0.00,Wunderground v.1.15,2013-05-15 10:10:00,
2013-05-15 03:15:00,43.8,40.2,30.11,West,274,0.0,0.0,87,0.00,,,0.00,Wunderground v.1.15,2013-05-15 10:15:00,
2013-05-15 03:20:00,43.8,40.2,30.11,West,274,0.0,0.0,87,0.00,,,0.00,Wunderground v.1.15,2013-05-15 10:20:00,
2013-05-15 03:25:00,43.7,40.1,30.11,West,274,0.0,0.0,87,0.00,,,0.00,Wunderground v.1.15,2013-05-15 10:25:00,
2013-05-15 03:30:00,43.6,40.0,30.11,West,274,0.0,0.0,87,0.00,,,0.00,Wunderground v.1.15,2013-05-15 10:30:00,
2013-05-15 03:35:00,43.3,39.7,30.11,West,273,0.0,0.0,87,0.00,,,0.00,Wunderground v.1.15,2013-05-15 10:35:00,
2013-05-15 03:40:00,43.1,39.5,30.11,West,273,0.0,0.0,87,0.00,,,0.00,Wunderground v.1.15,2013-05-15 10:40:00,
2013-05-15 03:45:00,43.0,39.4,30.11,West,273,0.0,0.0,87,0.00,,,0.00,Wunderground v.1.15,2013-05-15 10:45:00,
2013-05-15 03:50:00,42.8,39.2,30.11,West,274,0.0,0.0,87,0.00,,,0.00,Wunderground v.1.15,2013-05-15 10:50:00,
2013-05-15 03:55:00,42.7,39.1,30.11,West,273,0.0,0.0,87,0.00,,,0.00,Wunderground v.1.15,2013-05-15 10:55:00,
2013-05-15 04:00:00,42.7,39.4,30.10,West,273,0.0,0.0,88,0.00,,,0.00,Wunderground v.1.15,2013-05-15 11:00:00,
2013-05-15 04:05:00,42.6,39.3,30.10,West,273,0.0,0.0,88,0.00,,,0.00,Wunderground v.1.15,2013-05-15 11:05:00,
2013-05-15 04:10:00,42.6,39.3,30.10,West,274,0.0,0.0,88,0.00,,,0.00,Wunderground v.1.15,2013-05-15 11:10:00,
2013-05-15 04:15:00,42.4,39.1,30.10,West,273,0.0,0.0,88,0.00,,,0.00,Wunderground v.1.15,2013-05-15 11:15:00,
2013-05-15 04:25:00,42.3,39.0,30.10,West,274,0.0,0.0,88,0.00,,,0.00,Wunderground v.1.15,2013-05-15 11:25:00,
2013-05-15 04:30:00,42.3,39.3,30.10,West,274,0.0,0.0,89,0.00,,,0.00,Wunderground v.1.15,2013-05-15 11:30:00,
2013-05-15 04:40:00,42.0,39.0,30.10,West,274,0.0,0.0,89,0.00,,,0.00,Wunderground v.1.15,2013-05-15 11:40:00,
2013-05-15 04:45:00,42.0,39.0,30.10,West,274,0.0,0.0,89,0.00,,,0.00,Wunderground v.1.15,2013-05-15 11:45:00,
2013-05-15 04:50:00,41.8,38.8,30.10,West,274,0.0,0.0,89,0.00,,,0.00,Wunderground v.1.15,2013-05-15 11:50:00,
2013-05-15 04:55:00,41.8,38.8,30.10,West,273,0.0,0.0,89,0.00,,,0.00,Wunderground v.1.15,2013-05-15 11:55:00,
2013-05-15 05:05:00,41.7,38.7,30.09,West,273,0.0,0.0,89,0.00,,,0.00,Wunderground v.1.15,2013-05-15 12:05:00,
2013-05-15 05:10:00,41.7,39.0,30.09,West,274,0.0,0.0,90,0.00,,,0.00,Wunderground v.1.15,2013-05-15 12:10:00,
2013-05-15 05:15:00,41.8,39.1,30.09,West,273,0.0,0.0,90,0.00,,,0.00,Wunderground v.1.15,2013-05-15 12:15:00,
2013-05-15 05:20:00,41.8,39.1,30.09,West,274,0.0,0.0,90,0.00,,,0.00,Wunderground v.1.15,2013-05-15 12:20:00,
2013-05-15 05:25:00,42.0,39.3,30.09,West,274,0.0,0.0,90,0.00,,,0.00,Wunderground v.1.15,2013-05-15 12:25:00,
2013-05-15 05:30:00,42.1,39.4,30.09,West,274,0.0,0.0,90,0.00,,,0.00,Wunderground v.1.15,2013-05-15 12:30:00,
2013-05-15 05:40:00,42.1,39.4,30.09,West,274,0.0,0.0,90,0.00,,,0.00,Wunderground v.1.15,2013-05-15 12:40:00,
2013-05-15 05:45:00,42.0,39.3,30.10,West,274,0.0,0.0,90,0.00,,,0.00,Wunderground v.1.15,2013-05-15 12:45:00,
2013-05-15 05:50:00,42.0,39.3,30.10,West,274,0.0,0.0,90,0.00,,,0.00,Wunderground v.1.15,2013-05-15 12:50:00,
2013-05-15 05:55:00,41.8,39.1,30.10,West,273,0.0,0.0,90,0.00,,,0.00,Wunderground v.1.15,2013-05-15 12:55:00,
2013-05-15 06:00:00,41.8,39.1,30.10,West,273,0.0,0.0,90,0.00,,,0.00,Wunderground v.1.15,2013-05-15 13:00:00,
2013-05-15 06:05:00,41.8,39.1,30.10,West,274,0.0,0.0,90,0.00,,,0.00,Wunderground v.1.15,2013-05-15 13:05:00,
2013-05-15 06:15:00,41.8,39.4,30.10,West,274,0.0,0.0,91,0.00,,,0.00,Wunderground v.1.15,2013-05-15 13:15:00,
2013-05-15 06:20:00,42.0,39.6,30.10,West,274,0.0,0.0,91,0.00,,,0.00,Wunderground v.1.15,2013-05-15 13:20:00,
2013-05-15 06:30:00,42.1,39.7,30.10,West,274,0.0,0.0,91,0.00,,,0.00,Wunderground v.1.15,2013-05-15 13:30:00,
2013-05-15 06:35:00,42.1,39.7,30.10,West,274,0.0,0.0,91,0.00,,,0.00,Wunderground v.1.15,2013-05-15 13:35:00,
2013-05-15 06:45:00,42.3,39.9,30.10,West,274,0.0,0.0,91,0.00,,,0.00,Wunderground v.1.15,2013-05-15 13:45:00,
2013-05-15 06:50:00,42.3,39.9,30.10,West,274,0.0,0.0,91,0.00,,,0.00,Wunderground v.1.15,2013-05-15 13:50:00,
2013-05-15 06:55:00,42.3,39.9,30.10,West,274,0.0,0.0,91,0.00,,,0.00,Wunderground v.1.15,2013-05-15 13:55:00,
2013-05-15 07:05:00,42.7,40.5,30.10,West,274,0.0,0.0,92,0.00,,,0.00,Wunderground v.1.15,2013-05-15 14:05:00,
2013-05-15 07:10:00,42.8,40.6,30.10,West,274,0.0,0.0,92,0.00,,,0.00,Wunderground v.1.15,2013-05-15 14:10:00,
2013-05-15 07:15:00,43.1,40.9,30.10,West,274,0.0,0.0,92,0.00,,,0.00,Wunderground v.1.15,2013-05-15 14:15:00,
2013-05-15 07:20:00,43.4,41.2,30.10,West,273,0.0,0.0,92,0.00,,,0.00,Wunderground v.1.15,2013-05-15 14:20:00,
2013-05-15 07:30:00,44.3,42.4,30.10,West,273,0.0,0.0,93,0.00,,,0.00,Wunderground v.1.15,2013-05-15 14:30:00,
2013-05-15 07:35:00,44.6,42.7,30.10,West,274,0.0,0.0,93,0.00,,,0.00,Wunderground v.1.15,2013-05-15 14:35:00,
2013-05-15 07:40:00,45.0,43.1,30.10,West,274,0.0,0.0,93,0.00,,,0.00,Wunderground v.1.15,2013-05-15 14:40:00,
2013-05-15 07:50:00,45.7,43.8,30.10,West,275,0.0,0.0,93,0.00,,,0.00,Wunderground v.1.15,2013-05-15 14:50:00,
2013-05-15 07:55:00,46.0,44.1,30.10,WNW,286,0.0,0.0,93,0.00,,,0.00,Wunderground v.1.15,2013-05-15 14:55:00,
2013-05-15 08:00:00,46.3,44.1,30.09,WNW,286,0.0,0.0,92,0.00,,,0.00,Wunderground v.1.15,2013-05-15 15:00:00,
2013-05-15 08:05:00,46.7,44.5,30.09,WNW,286,0.0,0.0,92,0.00,,,0.00,Wunderground v.1.15,2013-05-15 15:05:00,
2013-05-15 08:10:00,47.0,44.5,30.09,WNW,286,0.0,0.0,91,0.00,,,0.00,Wunderground v.1.15,2013-05-15 15:10:00,
2013-05-15 08:15:00,47.6,45.1,30.09,WNW,286,0.0,0.0,91,0.00,,,0.00,Wunderground v.1.15,2013-05-15 15:15:00,
2013-05-15 08:25:00,49.0,45.0,30.09,NNE,33,0.0,0.0,86,0.00,,,0.00,Wunderground v.1.15,2013-05-15 15:25:00,
2013-05-15 08:30:00,49.6,44.6,30.09,NE,34,0.0,0.0,83,0.00,,,0.00,Wunderground v.1.15,2013-05-15 15:30:00,
2013-05-15 08:40:00,50.9,43.9,30.09,NE,34,1.0,2.0,77,0.00,,,0.00,Wunderground v.1.15,2013-05-15 15:40:00,
2013-05-15 08:45:00,51.8,44.5,30.09,NE,35,1.0,2.0,76,0.00,,,0.00,Wunderground v.1.15,2013-05-15 15:45:00,
2013-05-15 08:55:00,53.0,44.2,30.09,NE,49,1.0,2.0,72,0.00,,,0.00,Wunderground v.1.15,2013-05-15 15:55:00,
2013-05-15 09:00:00,53.4,43.9,30.08,NE,35,2.0,2.0,70,0.00,,,0.00,Wunderground v.1.15,2013-05-15 16:00:00,
2013-05-15 09:05:00,54.0,44.4,30.08,NE,35,1.0,2.0,70,0.00,,,0.00,Wunderground v.1.15,2013-05-15 16:05:00,
2013-05-15 09:10:00,54.3,43.6,30.08,NE,35,0.0,0.0,67,0.00,,,0.00,Wunderground v.1.15,2013-05-15 16:10:00,
2013-05-15 09:20:00,55.0,43.8,30.08,ENE,61,1.0,2.0,66,0.00,,,0.00,Wunderground v.1.15,2013-05-15 16:20:00,
2013-05-15 09:25:00,55.6,44.0,30.08,East,80,1.0,2.0,65,0.00,,,0.00,Wunderground v.1.15,2013-05-15 16:25:00,
2013-05-15 09:30:00,56.1,44.5,30.07,ENE,61,1.0,1.0,65,0.00,,,0.00,Wunderground v.1.15,2013-05-15 16:30:00,
2013-05-15 09:45:00,57.2,42.5,30.07,SW,219,0.0,0.0,58,0.00,,,0.00,Wunderground v.1.15,2013-05-15 16:45:00,
2013-05-15 09:50:00,57.4,44.1,30.07,ESE,113,0.0,0.0,61,0.00,,,0.00,Wunderground v.1.15,2013-05-15 16:50:00,
2013-05-15 09:55:00,57.8,44.4,30.07,NE,38,0.0,0.0,61,0.00,,,0.00,Wunderground v.1.15,2013-05-15 16:55:00,
2013-05-15 10:05:00,58.1,44.3,30.06,NNE,22,0.0,0.0,60,0.00,,,0.00,Wunderground v.1.15,2013-05-15 17:05:00,
2013-05-15 10:10:00,58.5,43.8,30.06,NW,319,0.0,0.0,58,0.00,,,0.00,Wunderground v.1.15,2013-05-15 17:10:00,
2013-05-15 10:15:00,58.6,44.8,30.06,NNE,26,0.0,0.0,60,0.00,,,0.00,Wunderground v.1.15,2013-05-15 17:15:00,
2013-05-15 10:20:00,58.9,44.1,30.06,East,95,0.0,0.0,58,0.00,,,0.00,Wunderground v.1.15,2013-05-15 17:20:00,
2013-05-15 10:30:00,60.0,45.6,30.06,ENE,67,0.0,0.0,59,0.00,,,0.00,Wunderground v.1.15,2013-05-15 17:30:00,
2013-05-15 10:35:00,60.4,46.0,30.06,NNE,26,0.0,1.0,59,0.00,,,0.00,Wunderground v.1.15,2013-05-15 17:35:00,
2013-05-15 10:40:00,60.6,44.3,30.06,SW,235,0.0,0.0,55,0.00,,,0.00,Wunderground v.1.15,2013-05-15 17:40:00,
2013-05-15 10:50:00,61.0,44.7,30.06,WSW,250,0.0,0.0,55,0.00,,,0.00,Wunderground v.1.15,2013-05-15 17:50:00,
2013-05-15 11:00:00,61.7,45.4,30.05,SSW,198,0.0,0.0,55,0.00,,,0.00,Wunderground v.1.15,2013-05-15 18:00:00,
2013-05-15 11:05:00,62.0,45.2,30.05,WNW,290,0.0,0.0,54,0.00,,,0.00,Wunderground v.1.15,2013-05-15 18:05:00,
2013-05-15 11:20:00,62.6,45.7,30.05,WSW,257,0.0,0.0,54,0.00,,,0.00,Wunderground v.1.15,2013-05-15 18:20:00,
2013-05-15 11:25:00,62.8,45.9,30.05,WNW,289,0.0,0.0,54,0.00,,,0.00,Wunderground v.1.15,2013-05-15 18:25:00,
2013-05-15 11:35:00,62.8,44.4,30.05,West,275,1.0,4.0,51,0.00,,,0.00,Wunderground v.1.15,2013-05-15 18:35:00,
2013-05-15 11:40:00,62.9,42.4,30.05,West,261,1.0,1.0,47,0.00,,,0.00,Wunderground v.1.15,2013-05-15 18:40:00,
2013-05-15 11:45:00,63.4,45.5,30.04,SE,146,1.0,1.0,52,0.00,,,0.00,Wunderground v.1.15,2013-05-15 18:45:00,
2013-05-15 11:50:00,63.6,44.1,30.04,SE,144,0.0,4.0,49,0.00,,,0.00,Wunderground v.1.15,2013-05-15 18:50:00,
2013-05-15 11:55:00,63.9,44.4,30.04,NW,307,0.0,4.0,49,0.00,,,0.00,Wunderground v.1.15,2013-05-15 18:55:00,
2013-05-15 12:00:00,63.6,45.1,30.04,East,88,1.0,1.0,51,0.00,,,0.00,Wunderground v.1.15,2013-05-15 19:00:00,
2013-05-15 12:05:00,63.7,45.2,30.04,WNW,286,1.0,1.0,51,0.00,,,0.00,Wunderground v.1.15,2013-05-15 19:05:00,
2013-05-15 12:15:00,64.8,45.2,30.03,SE,142,1.0,5.0,49,0.00,,,0.00,Wunderground v.1.15,2013-05-15 19:15:00,
2013-05-15 12:25:00,64.5,43.8,30.03,SW,234,1.0,2.0,47,0.00,,,0.00,Wunderground v.1.15,2013-05-15 19:25:00,
2013-05-15 12:35:00,64.0,44.4,30.03,WSW,238,0.0,1.0,49,0.00,,,0.00,Wunderground v.1.15,2013-05-15 19:35:00,
2013-05-15 12:40:00,64.5,45.4,30.03,SSE,150,0.0,6.0,50,0.00,,,0.00,Wunderground v.1.15,2013-05-15 19:40:00,
2013-05-15 12:45:00,64.7,44.0,30.03,WNW,286,1.0,6.0,47,0.00,,,0.00,Wunderground v.1.15,2013-05-15 19:45:00,
2013-05-15 12:50:00,64.5,43.8,30.03,SE,127,1.0,1.0,47,0.00,,,0.00,Wunderground v.1.15,2013-05-15 19:50:00,
2013-05-15 12:55:00,64.5,44.4,30.03,WNW,299,1.0,1.0,48,0.00,,,0.00,Wunderground v.1.15,2013-05-15 19:55:00,
2013-05-15 13:05:00,65.7,43.2,30.03,SE,131,0.0,0.0,44,0.00,,,0.00,Wunderground v.1.15,2013-05-15 20:05:00,
2013-05-15 13:10:00,65.7,43.8,30.03,South,171,0.0,1.0,45,0.00,,,0.00,Wunderground v.1.15,2013-05-15 20:10:00,
2013-05-15 13:15:00,65.7,43.8,30.02,SSE,158,0.0,1.0,45,0.00,,,0.00,Wunderground v.1.15,2013-05-15 20:15:00,
2013-05-15 13:25:00,65.8,44.4,30.02,SSE,155,1.0,7.0,46,0.00,,,0.00,Wunderground v.1.15,2013-05-15 20:25:00,
2013-05-15 13:40:00,66.0,45.2,30.03,WNW,298,1.0,1.0,47,0.00,,,0.00,Wunderground v.1.15,2013-05-15 20:40:00,
2013-05-15 13:45:00,65.8,45.6,30.02,WNW,283,1.0,1.0,48,0.00,,,0.00,Wunderground v.1.15,2013-05-15 20:45:00,
2013-05-15 13:50:00,66.0,45.2,30.02,SSE,157,1.0,1.0,47,0.00,,,0.00,Wunderground v.1.15,2013-05-15 20:50:00,
2013-05-15 13:55:00,66.1,46.4,30.02,SE,138,1.0,1.0,49,0.00,,,0.00,Wunderground v.1.15,2013-05-15 20:55:00,
2013-05-15 14:05:00,66.0,45.2,30.02,West,262,1.0,4.0,47,0.00,,,0.00,Wunderground v.1.15,2013-05-15 21:05:00,
2013-05-15 14:15:00,65.3,44.5,30.02,West,279,0.0,1.0,47,0.00,,,0.00,Wunderground v.1.15,2013-05-15 21:15:00,
2013-05-15 14:20:00,65.3,46.7,30.02,SSE,155,0.0,1.0,51,0.00,,,0.00,Wunderground v.1.15,2013-05-15 21:20:00,
2013-05-15 14:25:00,65.5,45.8,30.02,SSE,160,1.0,1.0,49,0.00,,,0.00,Wunderground v.1.15,2013-05-15 21:25:00,
2013-05-15 14:30:00,65.7,46.5,30.02,SSE,147,1.0,1.0,50,0.00,,,0.00,Wunderground v.1.15,2013-05-15 21:30:00,
2013-05-15 14:40:00,64.8,46.2,30.02,WSW,255,1.0,1.0,51,0.00,,,0.00,Wunderground v.1.15,2013-05-15 21:40:00,
2013-05-15 14:50:00,64.7,47.2,30.02,SSE,155,1.0,3.0,53,0.00,,,0.00,Wunderground v.1.15,2013-05-15 21:50:00,
2013-05-15 14:55:00,64.7,45.1,30.02,SE,144,1.0,3.0,49,0.00,,,0.00,Wunderground v.1.15,2013-05-15 21:55:00,
2013-05-15 15:00:00,65.0,45.9,30.02,West,265,1.0,2.0,50,0.00,,,0.00,Wunderground v.1.15,2013-05-15 22:00:00,
2013-05-15 15:10:00,64.8,44.6,30.02,NW,319,1.0,1.0,48,0.00,,,0.00,Wunderground v.1.15,2013-05-15 22:10:00,
2013-05-15 15:25:00,65.2,45.0,30.02,West,262,0.0,1.0,48,0.00,,,0.00,Wunderground v.1.15,2013-05-15 22:25:00,
2013-05-15 15:30:00,65.2,43.3,30.01,WNW,290,1.0,1.0,45,0.00,,,0.00,Wunderground v.1.15,2013-05-15 22:30:00,
2013-05-15 15:40:00,65.2,44.5,30.01,WSW,250,1.0,1.0,47,0.00,,,0.00,Wunderground v.1.15,2013-05-15 22:40:00,
2013-05-15 15:45:00,65.2,43.3,30.02,South,188,1.0,2.0,45,0.00,,,0.00,Wunderground v.1.15,2013-05-15 22:45:00,
2013-05-15 15:55:00,65.2,43.3,30.02,ESE,118,2.0,2.0,45,0.00,,,0.00,Wunderground v.1.15,2013-05-15 22:55:00,
2013-05-15 16:00:00,65.2,44.5,30.01,South,186,1.0,2.0,47,0.00,,,0.00,Wunderground v.1.15,2013-05-15 23:00:00,
2013-05-15 16:05:00,64.8,44.6,30.01,South,178,0.0,2.0,48,0.00,,,0.00,Wunderground v.1.15,2013-05-15 23:05:00,
2013-05-15 16:15:00,64.0,43.9,30.02,SSE,152,1.0,4.0,48,0.00,,,0.00,Wunderground v.1.15,2013-05-15 23:15:00,
2013-05-15 16:20:00,63.9,43.3,30.02,WNW,286,1.0,1.0,47,0.00,,,0.00,Wunderground v.1.15,2013-05-15 23:20:00,
2013-05-15 16:35:00,63.2,43.2,30.02,SW,231,0.0,1.0,48,0.00,,,0.00,Wunderground v.1.15,2013-05-15 23:35:00,
2013-05-15 16:40:00,63.2,44.8,30.02,SW,231,0.0,2.0,51,0.00,,,0.00,Wunderground v.1.15,2013-05-15 23:40:00,
2013-05-15 16:45:00,63.1,44.2,30.02,WSW,242,0.0,2.0,50,0.00,,,0.00,Wunderground v.1.15,2013-05-15 23:45:00,
2013-05-15 17:00:00,62.8,46.4,30.02,SSW,204,0.0,1.0,55,0.00,,,0.00,Wunderground v.1.15,2013-05-16 00:00:00,
2013-05-15 17:05:00,62.6,46.2,30.02,SSW,205,0.0,1.0,55,0.00,,,0.00,Wunderground v.1.15,2013-05-16 00:05:00,
2013-05-15 17:10:00,62.3,45.9,30.02,SE,142,0.0,1.0,55,0.00,,,0.00,Wunderground v.1.15,2013-05-16 00:10:00,
2013-05-15 17:15:00,62.0,45.2,30.02,SSE,153,0.0,1.0,54,0.00,,,0.00,Wunderground v.1.15,2013-05-16 00:15:00,
2013-05-15 17:20:00,61.7,44.4,30.02,ESE,111,0.0,2.0,53,0.00,,,0.00,Wunderground v.1.15,2013-05-16 00:20:00,
2013-05-15 17:30:00,61.0,44.2,30.03,South,171,1.0,1.0,54,0.00,,,0.00,Wunderground v.1.15,2013-05-16 00:30:00,
2013-05-15 17:35:00,60.7,44.9,30.03,SE,134,0.0,1.0,56,0.00,,,0.00,Wunderground v.1.15,2013-05-16 00:35:00,
2013-05-15 17:45:00,59.7,46.7,30.03,SSE,163,1.0,1.0,62,0.00,,,0.00,Wunderground v.1.15,2013-05-16 00:45:00,
2013-05-15 17:50:00,59.2,46.2,30.03,South,172,0.0,0.0,62,0.00,,,0.00,Wunderground v.1.15,2013-05-16 00:50:00,
2013-05-15 18:00:00,58.6,46.5,30.03,SSE,151,0.0,0.0,64,0.00,,,0.00,Wunderground v.1.15,2013-05-16 01:00:00,
2013-05-15 18:05:00,58.1,47.6,30.03,NNE,32,0.0,0.0,68,0.00,,,0.00,Wunderground v.1.15,2013-05-16 01:05:00,
2013-05-15 18:10:00,57.8,48.1,30.03,NNE,32,0.0,0.0,70,0.00,,,0.00,Wunderground v.1.15,2013-05-16 01:10:00,
2013-05-15 18:20:00,56.5,47.6,30.05,ESE,103,1.0,1.0,72,0.00,,,0.00,Wunderground v.1.15,2013-05-16 01:20:00,
2013-05-15 18:25:00,56.1,47.6,30.05,ESE,103,0.0,1.0,73,0.00,,,0.00,Wunderground v.1.15,2013-05-16 01:25:00,
2013-05-15 18:35:00,55.2,48.5,30.05,ESE,113,0.0,0.0,78,0.00,,,0.01,Wunderground v.1.15,2013-05-16 01:35:00,
2013-05-15 18:40:00,54.9,48.8,30.05,ESE,113,0.0,0.0,80,0.00,,,0.01,Wunderground v.1.15,2013-05-16 01:40:00,
2013-05-15 18:45:00,54.7,49.6,30.05,ESE,113,0.0,0.0,83,0.00,,,0.01,Wunderground v.1.15,2013-05-16 01:45:00,
2013-05-15 18:50:00,54.4,49.3,30.05,ESE,113,0.0,0.0,83,0.00,,,0.01,Wunderground v.1.15,2013-05-16 01:50:00,
2013-05-15 18:55:00,54.0,49.0,30.05,ESE,113,0.0,0.0,83,0.00,,,0.01,Wunderground v.1.15,2013-05-16 01:55:00,
2013-05-15 19:00:00,53.8,49.4,30.05,ESE,113,0.0,0.0,85,0.00,,,0.01,Wunderground v.1.15,2013-05-16 02:00:00,
2013-05-15 19:20:00,53.0,49.2,30.05,ESE,113,0.0,0.0,87,0.00,,,0.02,Wunderground v.1.15,2013-05-16 02:20:00,
2013-05-15 19:25:00,52.8,49.0,30.05,ESE,113,0.0,0.0,87,0.00,,,0.02,Wunderground v.1.15,2013-05-16 02:25:00,
2013-05-15 19:35:00,52.5,48.7,30.05,ESE,113,0.0,0.0,87,0.00,,,0.02,Wunderground v.1.15,2013-05-16 02:35:00,
2013-05-15 19:40:00,52.4,48.6,30.05,ESE,113,0.0,0.0,87,0.00,,,0.02,Wunderground v.1.15,2013-05-16 02:40:00,
2013-05-15 19:45:00,52.1,48.3,30.05,ESE,113,0.0,0.0,87,0.00,,,0.03,Wunderground v.1.15,2013-05-16 02:45:00,
2013-05-15 19:55:00,51.6,48.2,30.05,ESE,113,0.0,0.0,88,0.10,,,0.04,Wunderground v.1.15,2013-05-16 02:55:00,
2013-05-15 20:00:00,51.6,48.5,30.05,ESE,113,0.0,0.0,89,0.06,,,0.05,Wunderground v.1.15,2013-05-16 03:00:00,
2013-05-15 20:05:00,51.6,48.8,30.05,ESE,113,0.0,0.0,90,0.06,,,0.05,Wunderground v.1.15,2013-05-16 03:05:00,
2013-05-15 20:20:00,51.6,48.8,30.04,ESE,113,0.0,0.0,90,0.04,,,0.06,Wunderground v.1.15,2013-05-16 03:20:00,
2013-05-15 20:25:00,51.5,48.7,30.04,ESE,113,0.0,0.0,90,0.04,,,0.06,Wunderground v.1.15,2013-05-16 03:25:00,
2013-05-15 20:30:00,51.5,49.0,30.04,ESE,113,0.0,0.0,91,0.04,,,0.06,Wunderground v.1.15,2013-05-16 03:30:00,
2013-05-15 20:35:00,51.3,48.8,30.04,ESE,113,0.0,0.0,91,0.00,,,0.06,Wunderground v.1.15,2013-05-16 03:35:00,
2013-05-15 20:40:00,51.3,48.8,30.04,ESE,113,0.0,0.0,91,0.00,,,0.06,Wunderground v.1.15,2013-05-16 03:40:00,
2013-05-15 20:45:00,51.3,48.8,30.04,ESE,113,0.0,0.0,91,0.00,,,0.07,Wunderground v.1.15,2013-05-16 03:45:00,
2013-05-15 20:50:00,51.3,49.1,30.04,ESE,113,0.0,0.0,92,0.00,,,0.07,Wunderground v.1.15,2013-05-16 03:50:00,
2013-05-15 20:55:00,51.2,49.0,30.04,ESE,113,0.0,0.0,92,0.06,,,0.08,Wunderground v.1.15,2013-05-16 03:55:00,
2013-05-15 21:00:00,51.2,49.0,30.04,ESE,113,0.0,0.0,92,0.06,,,0.08,Wunderground v.1.15,2013-05-16 04:00:00,
2013-05-15 21:05:00,51.2,49.0,30.04,ESE,113,0.0,0.0,92,0.04,,,0.08,Wunderground v.1.15,2013-05-16 04:05:00,
2013-05-15 21:10:00,51.2,49.0,30.04,ESE,113,0.0,0.0,92,0.00,,,0.08,Wunderground v.1.15,2013-05-16 04:10:00,
2013-05-15 21:15:00,51.2,49.0,30.04,ESE,113,0.0,0.0,92,0.00,,,0.09,Wunderground v.1.15,2013-05-16 04:15:00,
2013-05-15 21:20:00,51.2,49.0,30.04,ESE,113,0.0,0.0,92,0.00,,,0.09,Wunderground v.1.15,2013-05-16 04:20:00,
2013-05-15 21:25:00,51.0,48.8,30.04,ESE,113,0.0,0.0,92,0.07,,,0.10,Wunderground v.1.15,2013-05-16 04:25:00,
2013-05-15 21:30:00,51.0,48.8,30.04,ESE,113,0.0,0.0,92,0.06,,,0.10,Wunderground v.1.15,2013-05-16 04:30:00,
2013-05-15 21:35:00,51.0,48.8,30.04,ESE,113,0.0,0.0,92,0.04,,,0.10,Wunderground v.1.15,2013-05-16 04:35:00,
2013-05-15 21:40:00,51.0,48.8,30.04,ESE,113,0.0,0.0,92,0.00,,,0.10,Wunderground v.1.15,2013-05-16 04:40:00,
2013-05-15 21:45:00,51.0,48.8,30.04,ESE,113,0.0,0.0,92,0.00,,,0.10,Wunderground v.1.15,2013-05-16 04:45:00,
2013-05-15 21:50:00,50.9,48.7,30.04,ESE,113,0.0,0.0,92,0.00,,,0.11,Wunderground v.1.15,2013-05-16 04:50:00,
2013-05-15 21:55:00,50.9,48.7,30.04,ESE,113,0.0,0.0,92,0.00,,,0.11,Wunderground v.1.15,2013-05-16 04:55:00,
2013-05-15 22:00:00,51.0,49.0,30.04,ESE,113,0.0,0.0,93,0.00,,,0.11,Wunderground v.1.15,2013-05-16 05:00:00,
2013-05-15 22:05:00,51.0,49.0,30.04,ESE,113,0.0,0.0,93,0.00,,,0.11,Wunderground v.1.15,2013-05-16 05:05:00,
2013-05-15 22:10:00,51.2,49.2,30.04,ESE,113,0.0,0.0,93,0.00,,,0.11,Wunderground v.1.15,2013-05-16 05:10:00,
2013-05-15 22:15:00,51.2,49.2,30.03,ESE,113,0.0,0.0,93,0.00,,,0.11,Wunderground v.1.15,2013-05-16 05:15:00,
2013-05-15 22:20:00,51.0,49.0,30.03,ESE,113,0.0,0.0,93,0.00,,,0.11,Wunderground v.1.15,2013-05-16 05:20:00,
2013-05-15 22:30:00,51.0,49.0,30.03,ESE,113,0.0,0.0,93,0.00,,,0.11,Wunderground v.1.15,2013-05-16 05:30:00,
2013-05-15 22:35:00,51.0,49.0,30.03,ESE,113,0.0,0.0,93,0.00,,,0.11,Wunderground v.1.15,2013-05-16 05:35:00,
2013-05-15 22:45:00,51.0,49.0,30.03,ESE,113,0.0,0.0,93,0.00,,,0.11,Wunderground v.1.15,2013-05-16 05:45:00,
2013-05-15 22:55:00,51.0,49.0,30.03,ESE,113,0.0,0.0,93,0.00,,,0.11,Wunderground v.1.15,2013-05-16 05:55:00,
2013-05-15 23:00:00,51.0,49.0,30.03,ESE,113,0.0,0.0,93,0.00,,,0.11,Wunderground v.1.15,2013-05-16 06:00:00,
2013-05-15 23:05:00,51.0,49.0,30.03,ESE,113,0.0,0.0,93,0.00,,,0.11,Wunderground v.1.15,2013-05-16 06:05:00,
2013-05-15 23:10:00,51.0,49.0,30.03,ESE,113,0.0,0.0,93,0.00,,,0.11,Wunderground v.1.15,2013-05-16 06:10:00,
2013-05-15 23:20:00,51.0,49.0,30.03,ESE,113,0.0,0.0,93,0.00,,,0.11,Wunderground v.1.15,2013-05-16 06:20:00,
2013-05-15 23:25:00,51.0,49.0,30.03,ESE,113,0.0,0.0,93,0.00,,,0.11,Wunderground v.1.15,2013-05-16 06:25:00,
2013-05-15 23:30:00,51.0,49.0,30.02,ESE,113,0.0,0.0,93,0.00,,,0.11,Wunderground v.1.15,2013-05-16 06:30:00,
2013-05-15 23:35:00,51.0,49.0,30.02,ESE,113,0.0,0.0,93,0.00,,,0.11,Wunderground v.1.15,2013-05-16 06:35:00,
2013-05-15 23:45:00,51.0,49.0,30.02,ESE,113,0.0,0.0,93,0.00,,,0.11,Wunderground v.1.15,2013-05-16 06:45:00,
2013-05-15 23:50:00,51.0,49.0,30.02,ESE,113,0.0,0.0,93,0.00,,,0.11,Wunderground v.1.15,2013-05-16 06:50:00,
2013-05-15 23:55:00,50.9,48.9,30.02,ESE,113,0.0,0.0,93,0.00,,,0.11,Wunderground v.1.15,2013-05-16 06:55:00,